createdAt,value
2019-04-27T00:03:41.327Z,55.08
2019-04-27T00:07:55.672Z,56.10
2019-04-27T00:12:00.653Z,56.63
2019-04-27T00:16:10.018Z,54.50
2019-04-27T00:20:24.067Z,53.41
2019-04-27T00:24:29.811Z,57.84
2019-04-27T00:28:35.719Z,54.74
2019-04-27T00:32:43.054Z,53.35
2019-04-27T00:37:05.443Z,53.79
2019-04-27T00:41:14.240Z,55.84
2019-04-27T00:45:20.311Z,56.51
2019-04-27T00:49:26.078Z,52.35
2019-04-27T00:53:33.400Z,55.32
2019-04-27T00:57:58.926Z,53.75
2019-04-27T01:02:07.135Z,55.75
2019-04-27T01:06:14.781Z,62.43
2019-04-27T01:10:23.270Z,56.21
2019-04-27T01:14:28.975Z,54.35
2019-04-27T01:18:34.706Z,54.75
2019-04-27T01:22:40.375Z,57.06
2019-04-27T01:26:54.486Z,58.22
2019-04-27T01:31:01.815Z,58.53
2019-04-27T01:35:08.677Z,58.40
2019-04-27T01:39:16.380Z,59.23
2019-04-27T01:43:22.051Z,59.40
2019-04-27T01:47:28.946Z,59.17
2019-04-27T01:51:34.817Z,58.97
2019-04-27T01:55:40.781Z,58.84
2019-04-27T01:59:46.603Z,58.75
2019-04-27T02:04:03.891Z,59.24
2019-04-27T02:08:10.186Z,58.59
2019-04-27T02:12:15.943Z,58.67
2019-04-27T02:16:21.655Z,58.78
2019-04-27T02:20:29.954Z,58.61
2019-04-27T02:24:35.770Z,59.82
2019-04-27T02:28:43.098Z,58.00
2019-04-27T02:33:02.626Z,58.20
2019-04-27T02:37:10.215Z,58.10
2019-04-27T02:41:15.753Z,57.46
2019-04-27T02:45:22.197Z,56.64
2019-04-27T02:49:30.289Z,56.87
2019-04-27T02:53:54.328Z,56.99
2019-04-27T02:58:00.150Z,58.08
2019-04-27T03:02:23.468Z,57.85
2019-04-27T03:06:30.067Z,57.64
2019-04-27T03:10:36.013Z,57.74
2019-04-27T03:14:41.461Z,58.27
2019-04-27T03:18:50.793Z,58.70
2019-04-27T03:23:00.112Z,58.72
2019-04-27T03:27:06.966Z,58.65
2019-04-27T03:31:14.075Z,59.13
2019-04-27T03:35:22.606Z,59.03
2019-04-27T03:39:29.992Z,59.17
2019-04-27T03:43:35.269Z,59.19
2019-04-27T03:47:41.110Z,59.81
2019-04-27T03:51:49.905Z,60.63
2019-04-27T03:56:04.563Z,61.74
2019-04-27T04:00:12.601Z,61.35
2019-04-27T04:04:19.638Z,61.34
2019-04-27T04:08:25.403Z,61.12
2019-04-27T04:12:40.000Z,61.14
2019-04-27T04:16:49.912Z,60.86
2019-04-27T04:20:55.606Z,61.15
2019-04-27T04:25:01.267Z,61.63
2019-04-27T04:29:06.947Z,61.43
2019-04-27T04:33:12.612Z,62.00
2019-04-27T04:37:19.618Z,62.45
2019-04-27T04:41:30.356Z,62.27
2019-04-27T04:45:46.273Z,62.07
2019-04-27T04:50:07.367Z,61.24
2019-04-27T04:53:59.919Z,61.07
2019-04-27T04:58:05.693Z,61.21
2019-04-27T05:02:11.426Z,61.22
2019-04-27T05:06:18.824Z,60.75
2019-04-27T05:10:24.670Z,60.82
2019-04-27T05:14:30.313Z,60.86
2019-04-27T05:18:35.995Z,60.74
2019-04-27T05:22:41.670Z,60.89
2019-04-27T05:26:48.741Z,60.60
2019-04-27T05:30:54.517Z,60.12
2019-04-27T05:35:00.185Z,59.91
2019-04-27T05:39:09.778Z,59.90
2019-04-27T05:43:17.168Z,59.04
2019-04-27T05:47:24.511Z,58.10
2019-04-27T05:51:36.647Z,58.20
2019-04-27T05:55:39.257Z,57.69
2019-04-27T05:59:45.972Z,57.80
2019-04-27T06:03:51.664Z,57.70
2019-04-27T06:07:58.933Z,56.67
2019-04-27T06:12:04.743Z,56.21
2019-04-27T06:16:10.424Z,56.29
2019-04-27T06:20:16.325Z,56.39
2019-04-27T06:24:22.009Z,56.73
2019-04-27T06:28:29.025Z,57.26
2019-04-27T06:32:35.100Z,56.70
2019-04-27T06:36:41.748Z,56.82
2019-04-27T06:40:48.958Z,56.32
2019-04-27T06:44:54.694Z,54.73
2019-04-27T06:49:00.387Z,53.51
2019-04-27T06:53:06.141Z,53.95
2019-04-27T06:57:11.836Z,54.24
2019-04-27T07:01:19.055Z,53.65
2019-04-27T07:05:25.820Z,52.33
2019-04-27T07:09:31.514Z,52.19
2019-04-27T07:13:38.928Z,50.53
2019-04-27T07:17:44.695Z,49.77
2019-04-27T07:21:50.514Z,48.44
2019-04-27T07:25:56.369Z,47.82
2019-04-27T07:30:02.192Z,47.74
2019-04-27T07:34:09.374Z,48.88
2019-04-27T07:38:15.173Z,49.44
2019-04-27T07:42:21.983Z,51.81
2019-04-27T07:46:29.940Z,47.92
2019-04-27T07:50:35.293Z,47.99
2019-04-27T07:54:41.125Z,49.43
2019-04-27T07:58:46.828Z,49.35
2019-04-27T08:02:52.520Z,52.48
2019-04-27T08:06:59.547Z,49.59
2019-04-27T08:11:05.410Z,50.86
2019-04-27T08:15:11.687Z,50.75
2019-04-27T08:19:17.393Z,49.29
2019-04-27T08:23:23.079Z,49.12
2019-04-27T08:27:30.543Z,46.00
2019-04-27T08:31:40.583Z,47.36
2019-04-27T08:35:46.353Z,44.89
2019-04-27T08:39:52.278Z,44.21
2019-04-27T08:43:58.730Z,50.56
2019-04-27T08:48:04.588Z,44.56
2019-04-27T08:52:10.291Z,51.94
2019-04-27T08:56:16.086Z,46.84
2019-04-27T09:00:21.988Z,46.70
2019-04-27T09:04:28.853Z,45.93
2019-04-27T09:08:36.181Z,45.67
2019-04-27T09:12:55.332Z,47.96
2019-04-27T09:17:05.761Z,49.91
2019-04-27T09:21:11.514Z,51.51
2019-04-27T09:25:17.216Z,52.25
2019-04-27T09:29:23.886Z,50.92
2019-04-27T09:33:29.595Z,50.37
2019-04-27T09:37:36.678Z,49.63
2019-04-27T09:41:42.387Z,50.65
2019-04-27T09:45:49.171Z,51.77
2019-04-27T09:49:56.483Z,52.41
2019-04-27T09:54:03.210Z,51.96
2019-04-27T09:58:08.908Z,53.06
2019-04-27T10:02:16.401Z,52.59
2019-04-27T10:06:22.247Z,52.65
2019-04-27T10:10:28.027Z,52.64
2019-04-27T10:14:33.792Z,52.22
2019-04-27T10:18:39.593Z,53.65
2019-04-27T10:22:46.401Z,56.78
2019-04-27T10:26:52.364Z,57.50
2019-04-27T10:30:58.135Z,56.31
2019-04-27T10:35:05.494Z,57.68
2019-04-27T10:39:14.711Z,56.26
2019-04-27T10:43:20.437Z,55.52
2019-04-27T10:47:26.326Z,55.19
2019-04-27T10:51:32.133Z,55.09
2019-04-27T10:55:37.861Z,53.93
2019-04-27T10:59:43.553Z,53.70
2019-04-27T11:03:55.481Z,52.30
2019-04-27T11:08:01.305Z,51.41
2019-04-27T11:12:07.321Z,51.45
2019-04-27T11:16:13.042Z,51.84
2019-04-27T11:20:18.970Z,48.19
2019-04-27T11:24:24.722Z,48.68
2019-04-27T11:28:30.427Z,47.96
2019-04-27T11:32:36.185Z,47.76
2019-04-27T11:36:45.523Z,47.88
2019-04-27T11:40:51.033Z,46.86
2019-04-27T11:44:58.311Z,46.59
2019-04-27T11:49:04.349Z,45.56
2019-04-27T11:53:22.080Z,44.25
2019-04-27T11:57:17.705Z,43.75
2019-04-27T12:01:24.445Z,44.14
2019-04-27T12:05:30.185Z,42.90
2019-04-27T12:09:35.978Z,42.88
2019-04-27T12:13:41.759Z,46.57
2019-04-27T12:17:47.449Z,43.01
2019-04-27T12:21:53.161Z,43.45
2019-04-27T12:25:58.946Z,43.66
2019-04-27T12:30:10.330Z,43.57
2019-04-27T12:34:16.346Z,44.21
2019-04-27T12:38:22.059Z,44.06
2019-04-27T12:42:27.815Z,44.67
2019-04-27T12:46:33.713Z,43.90
2019-04-27T12:50:39.516Z,44.24
2019-04-27T12:54:52.779Z,44.91
2019-04-27T12:59:03.020Z,41.88
2019-04-27T13:03:09.727Z,41.18
2019-04-27T13:07:16.005Z,40.56
2019-04-27T13:11:22.996Z,42.19
2019-04-27T13:15:28.814Z,43.75
2019-04-27T13:19:36.437Z,42.61
2019-04-27T13:23:42.925Z,40.91
2019-04-27T13:27:51.016Z,40.59
2019-04-27T13:31:57.726Z,37.53
2019-04-27T13:36:03.542Z,39.69
2019-04-27T13:40:12.083Z,39.98
2019-04-27T13:44:19.069Z,41.93
2019-04-27T13:48:42.356Z,43.25
2019-04-27T13:52:48.074Z,43.53
2019-04-27T13:56:53.840Z,44.45
2019-04-27T14:00:59.712Z,43.19
2019-04-27T14:05:06.998Z,42.28
2019-04-27T14:09:12.840Z,40.07
2019-04-27T14:13:19.871Z,41.32
2019-04-27T14:17:25.553Z,41.66
2019-04-27T14:21:32.873Z,42.89
2019-04-27T14:25:39.098Z,43.97
2019-04-27T14:29:44.903Z,44.73
2019-04-27T14:33:52.217Z,45.14
2019-04-27T14:37:58.166Z,44.83
2019-04-27T14:42:04.042Z,47.71
2019-04-27T14:46:09.888Z,49.38
2019-04-27T14:50:15.889Z,54.31
2019-04-27T14:54:21.624Z,59.46
2019-04-27T14:58:28.304Z,55.02
2019-04-27T15:02:34.192Z,54.14
2019-04-27T15:06:39.892Z,55.15
2019-04-27T15:10:46.615Z,55.97
2019-04-27T15:14:53.298Z,53.27
2019-04-27T15:19:07.472Z,53.98
2019-04-27T15:23:13.666Z,51.31
2019-04-27T15:27:21.098Z,52.24
2019-04-27T15:31:31.192Z,49.94
2019-04-27T15:35:44.052Z,46.13
2019-04-27T15:40:11.366Z,46.49
2019-04-27T15:44:14.613Z,49.36
2019-04-27T15:48:20.391Z,50.33
2019-04-27T15:52:30.190Z,51.85
2019-04-27T15:56:35.184Z,49.16
2019-04-27T16:00:41.219Z,44.59
2019-04-27T16:04:49.830Z,44.33
2019-04-27T16:08:54.359Z,42.70
2019-04-27T16:13:06.545Z,43.43
2019-04-27T16:17:11.194Z,43.30
2019-04-27T16:21:15.359Z,44.19
2019-04-27T16:25:23.528Z,45.24
2019-04-27T16:29:31.479Z,45.00
2019-04-27T16:33:39.093Z,45.38
2019-04-27T16:38:04.542Z,45.25
2019-04-27T16:42:14.184Z,43.75
2019-04-27T16:46:21.039Z,43.46
2019-04-27T16:50:26.746Z,43.50
2019-04-27T16:54:32.858Z,41.52
2019-04-27T16:58:39.714Z,41.96
2019-04-27T17:02:45.716Z,43.28
2019-04-27T17:06:51.697Z,42.75
2019-04-27T17:11:07.854Z,42.71
2019-04-27T17:15:23.558Z,43.02
2019-04-27T17:19:30.893Z,43.76
2019-04-27T17:23:36.569Z,44.19
2019-04-27T17:27:48.261Z,43.31
2019-04-27T17:31:56.727Z,43.55
2019-04-27T17:36:03.040Z,43.98
2019-04-27T17:40:09.509Z,43.22
2019-04-27T17:44:19.269Z,42.94
2019-04-27T17:48:22.856Z,43.22
2019-04-27T17:52:28.720Z,42.64
2019-04-27T17:56:36.353Z,42.43
2019-04-27T18:00:44.514Z,46.61
2019-04-27T18:04:49.413Z,49.19
2019-04-27T18:08:59.769Z,47.81
2019-04-27T18:13:02.590Z,48.36
2019-04-27T18:17:11.966Z,46.66
2019-04-27T18:21:19.453Z,49.44
2019-04-27T18:25:23.746Z,47.82
2019-04-27T18:29:30.819Z,49.54
2019-04-27T18:33:38.348Z,51.37
2019-04-27T18:37:44.096Z,55.49
2019-04-27T18:41:54.326Z,53.13
2019-04-27T18:45:59.282Z,52.38
2019-04-27T18:50:17.770Z,54.68
2019-04-27T18:54:23.740Z,51.25
2019-04-27T18:58:29.424Z,52.02
2019-04-27T19:02:35.105Z,56.96
2019-04-27T19:06:40.833Z,58.83
2019-04-27T19:10:46.512Z,59.52
2019-04-27T19:14:53.182Z,60.89
2019-04-27T19:19:00.477Z,59.21
2019-04-27T19:23:06.251Z,57.82
2019-04-27T19:27:20.581Z,59.42
2019-04-27T19:31:29.119Z,60.80
2019-04-27T19:35:34.861Z,60.73
2019-04-27T19:39:40.604Z,58.28
2019-04-27T19:43:46.381Z,58.16
2019-04-27T19:47:52.247Z,59.58
2019-04-27T19:51:58.846Z,59.70
2019-04-27T19:56:04.729Z,57.57
2019-04-27T20:00:15.647Z,56.09
2019-04-27T20:04:31.919Z,55.88
2019-04-27T20:08:42.174Z,56.01
2019-04-27T20:12:47.930Z,55.65
2019-04-27T20:16:53.626Z,56.38
2019-04-27T20:20:59.389Z,55.53
2019-04-27T20:25:06.539Z,57.70
2019-04-27T20:29:12.192Z,57.71
2019-04-27T20:33:17.911Z,57.84
2019-04-27T20:37:23.629Z,57.56
2019-04-27T20:41:29.337Z,58.30
2019-04-27T20:45:35.095Z,58.48
2019-04-27T20:49:40.763Z,58.90
2019-04-27T20:53:53.827Z,60.35
2019-04-27T20:58:02.707Z,59.84
2019-04-27T21:02:24.823Z,58.58
2019-04-27T21:06:35.172Z,59.33
2019-04-27T21:10:41.369Z,60.47
2019-04-27T21:14:47.081Z,60.62
2019-04-27T21:18:53.741Z,59.65
2019-04-27T21:22:59.442Z,59.42
2019-04-27T21:27:05.191Z,58.01
2019-04-27T21:31:12.659Z,58.63
2019-04-27T21:35:18.284Z,57.89
2019-04-27T21:39:23.978Z,57.61
2019-04-27T21:43:29.668Z,57.78
2019-04-27T21:47:35.355Z,58.71
2019-04-27T21:51:42.916Z,59.14
2019-04-27T21:55:50.774Z,59.58
2019-04-27T21:59:57.638Z,59.85
2019-04-27T22:04:04.650Z,59.55
2019-04-27T22:08:11.666Z,60.54
2019-04-27T22:12:21.317Z,59.86
2019-04-27T22:16:28.102Z,59.47
2019-04-27T22:20:35.071Z,60.03
2019-04-27T22:24:42.802Z,60.21
2019-04-27T22:28:49.597Z,59.93
2019-04-27T22:32:55.672Z,59.59
2019-04-27T22:37:02.686Z,59.44
2019-04-27T22:41:10.558Z,59.25
2019-04-27T22:45:19.277Z,59.04
2019-04-27T22:49:24.966Z,59.17
2019-04-27T22:53:32.415Z,58.94
2019-04-27T22:57:41.403Z,58.47
2019-04-27T23:01:51.729Z,58.86
2019-04-27T23:05:57.490Z,59.08
2019-04-27T23:10:03.969Z,59.27
2019-04-27T23:14:11.054Z,59.69
2019-04-27T23:18:17.902Z,60.13
2019-04-27T23:22:23.597Z,60.11
2019-04-27T23:26:31.056Z,60.42
2019-04-27T23:30:44.465Z,60.65
2019-04-27T23:34:51.446Z,60.70
2019-04-27T23:38:58.149Z,60.40
2019-04-27T23:43:03.836Z,60.60
2019-04-27T23:47:09.537Z,60.68
2019-04-27T23:51:16.851Z,59.96
2019-04-27T23:55:24.148Z,59.90
2019-04-27T23:59:31.493Z,60.34
